Time;durP1;ratioP1;P1;durP2;ratioP2;P2;SDS_P1;SDS_P2;PMS_P1;PMS_P2;Temp;Humidity;BMP_temperature;BMP_pressure;BME280_temperature;BME280_humidity;BME280_pressure;Samples;Min_cycle;Max_cycle;Signal;HPM_P1;HPM_P2
2023/07/19 00:01:10;;;;;;;3.90;0.70;;;;;;;15.33;100.00;99731.98;105254;1256;60492;-49
2023/07/19 00:03:37;;;;;;;6.90;0.80;;;;;;;15.34;100.00;99733.35;105182;1254;60616;-50
2023/07/19 00:06:05;;;;;;;7.20;1.20;;;;;;;15.36;100.00;99725.05;109032;1254;74361;-50
2023/07/19 00:08:32;;;;;;;7.60;0.90;;;;;;;15.35;100.00;99722.40;108380;1255;68007;-49
2023/07/19 00:10:59;;;;;;;1.60;0.70;;;;;;;15.35;100.00;99716.13;105306;1259;72451;-49
2023/07/19 00:13:27;;;;;;;8.10;0.80;;;;;;;15.36;100.00;99723.82;105380;1256;60404;-48
2023/07/19 00:15:54;;;;;;;8.10;1.40;;;;;;;15.35;100.00;99725.35;105384;1257;60024;-49
2023/07/19 00:18:22;;;;;;;5.90;0.80;;;;;;;15.33;100.00;99723.11;105416;1259;73826;-49
2023/07/19 00:20:49;;;;;;;5.10;1.00;;;;;;;15.32;100.00;99721.36;105196;1254;67511;-48
2023/07/19 00:23:16;;;;;;;7.50;1.20;;;;;;;15.32;100.00;99722.64;105233;1254;70118;-49
2023/07/19 00:25:45;;;;;;;3.80;0.90;;;;;;;15.30;100.00;99723.85;105228;1259;61110;-49
2023/07/19 00:28:13;;;;;;;2.10;0.80;;;;;;;15.28;100.00;99720.41;108999;1254;59496;-50
2023/07/19 00:30:40;;;;;;;7.60;0.90;;;;;;;15.23;100.00;99722.19;109036;1254;73809;-51
2023/07/19 00:33:08;;;;;;;5.70;1.10;;;;;;;15.18;100.00;99722.16;108995;1254;65955;-50
2023/07/19 00:35:41;;;;;;;0.90;0.50;;;;;;;15.15;100.00;99720.86;108865;1256;71687;-50
2023/07/19 00:38:08;;;;;;;2.10;0.50;;;;;;;15.14;100.00;99731.26;109006;1254;62160;-50
2023/07/19 00:40:35;;;;;;;1.10;0.60;;;;;;;15.13;100.00;99733.89;106333;1258;61611;-50
2023/07/19 00:43:08;;;;;;;5.20;0.50;;;;;;;15.13;100.00;99731.88;105227;1256;73587;-49
2023/07/19 00:45:39;;;;;;;1.30;0.50;;;;;;;15.13;100.00;99727.75;108617;1254;67102;-49
2023/07/19 00:48:07;;;;;;;2.40;0.60;;;;;;;15.13;100.00;99730.98;107011;1256;73109;-49
2023/07/19 00:50:34;;;;;;;1.10;0.60;;;;;;;15.12;100.00;99734.66;105377;1256;60539;-49
2023/07/19 00:53:01;;;;;;;3.10;0.70;;;;;;;15.12;100.00;99736.09;105229;1261;60676;-49
2023/07/19 00:55:30;;;;;;;1.70;0.60;;;;;;;15.12;100.00;99730.67;105276;1259;72054;-49
2023/07/19 00:57:57;;;;;;;5.00;0.70;;;;;;;15.10;100.00;99734.95;105226;1261;66319;-49
2023/07/19 01:00:24;;;;;;;2.50;0.60;;;;;;;15.08;100.00;99734.02;105222;1256;71448;-50
2023/07/19 01:02:52;;;;;;;3.00;0.60;;;;;;;15.04;100.00;99732.89;105269;1257;62683;-48
2023/07/19 01:05:20;;;;;;;2.40;0.60;;;;;;;14.97;100.00;99730.98;105700;1256;60359;-50
2023/07/19 01:07:47;;;;;;;1.30;0.60;;;;;;;14.89;100.00;99726.79;105214;1259;72544;-50
2023/07/19 01:10:15;;;;;;;3.40;0.60;;;;;;;14.85;100.00;99724.72;105278;1256;67932;-50
2023/07/19 01:12:42;;;;;;;2.30;0.90;;;;;;;14.79;100.00;99723.14;105160;1255;72648;-49
2023/07/19 01:15:10;;;;;;;4.20;0.60;;;;;;;14.72;100.00;99721.61;105210;1256;61703;-49
2023/07/19 01:17:37;;;;;;;0.70;0.60;;;;;;;14.68;100.00;99717.76;105290;1259;60027;-48
2023/07/19 01:20:06;;;;;;;4.80;0.70;;;;;;;14.65;100.00;99712.32;105381;1256;72222;-49
2023/07/19 01:22:35;;;;;;;0.80;0.50;;;;;;;14.62;100.00;99708.39;105435;1259;66638;-50
2023/07/19 01:25:04;;;;;;;2.90;0.50;;;;;;;14.59;100.00;99706.42;105486;1259;71883;-49
2023/07/19 01:27:31;;;;;;;2.40;0.60;;;;;;;14.56;100.00;99711.12;105297;1254;61762;-49
2023/07/19 01:29:58;;;;;;;1.60;0.60;;;;;;;14.54;100.00;99712.34;105446;1256;60482;-50
2023/07/19 01:32:26;;;;;;;0.80;0.50;;;;;;;14.53;100.00;99707.56;105275;1262;72701;-49
2023/07/19 01:34:53;;;;;;;0.90;0.70;;;;;;;14.52;100.00;99706.89;105412;1256;67916;-51
2023/07/19 01:37:20;;;;;;;2.90;0.60;;;;;;;14.51;100.00;99704.93;105262;1261;72753;-50
2023/07/19 01:39:49;;;;;;;1.80;0.60;;;;;;;14.49;100.00;99708.88;105372;1257;60648;-50
2023/07/19 01:42:16;;;;;;;1.00;0.70;;;;;;;14.46;100.00;99708.52;105350;1263;60577;-51
2023/07/19 01:44:44;;;;;;;3.20;0.80;;;;;;;14.43;100.00;99706.41;105640;1256;72982;-50
2023/07/19 01:47:11;;;;;;;1.60;0.60;;;;;;;14.39;100.00;99704.77;105241;1259;65512;-49
2023/07/19 01:49:40;;;;;;;2.90;0.80;;;;;;;14.34;100.00;99700.40;105169;1259;74418;-49
2023/07/19 01:52:07;;;;;;;1.20;0.70;;;;;;;14.29;100.00;99697.14;105443;1258;60552;-48
2023/07/19 01:54:35;;;;;;;1.60;0.50;;;;;;;14.21;100.00;99701.23;105295;1256;60632;-50
2023/07/19 01:57:03;;;;;;;1.00;0.60;;;;;;;14.10;100.00;99702.33;105412;1255;74054;-52
2023/07/19 01:59:31;;;;;;;9.30;0.60;;;;;;;13.97;100.00;99700.79;105370;1256;68516;-47
2023/07/19 02:01:58;;;;;;;1.00;0.60;;;;;;;13.85;100.00;99703.04;105357;1257;71350;-48
2023/07/19 02:04:26;;;;;;;2.10;0.70;;;;;;;13.78;100.00;99701.08;105406;1268;60710;-49
2023/07/19 02:06:54;;;;;;;3.00;0.50;;;;;;;13.77;100.00;99697.41;105566;1259;60552;-50
2023/07/19 02:09:22;;;;;;;3.90;0.50;;;;;;;13.78;100.00;99698.03;105242;1256;74310;-48
2023/07/19 02:11:49;;;;;;;4.40;0.60;;;;;;;13.81;100.00;99697.88;105174;1255;65905;-49
2023/07/19 02:14:18;;;;;;;1.80;0.40;;;;;;;13.85;100.00;99698.13;105192;1256;72801;-50
2023/07/19 02:16:45;;;;;;;1.90;0.50;;;;;;;13.85;100.00;99696.37;105228;1259;61143;-49
2023/07/19 02:19:13;;;;;;;1.70;0.60;;;;;;;13.79;100.00;99697.62;105201;1258;60461;-52
2023/07/19 02:21:40;;;;;;;2.50;0.60;;;;;;;13.70;100.00;99698.22;105154;1256;74259;-51
2023/07/19 02:24:08;;;;;;;0.80;0.50;;;;;;;13.61;100.00;99696.36;105986;1254;67275;-52
2023/07/19 02:26:35;;;;;;;2.40;0.50;;;;;;;13.59;100.00;99695.61;105300;1256;71303;-51
2023/07/19 02:29:03;;;;;;;1.00;0.70;;;;;;;13.56;100.00;99697.42;105516;1256;61682;-50
2023/07/19 02:31:30;;;;;;;4.20;0.60;;;;;;;13.51;100.00;99700.23;105299;1256;60527;-51
2023/07/19 02:33:58;;;;;;;0.60;0.60;;;;;;;13.47;100.00;99698.89;106108;1256;74115;-50
2023/07/19 02:36:26;;;;;;;1.20;0.50;;;;;;;13.41;100.00;99695.98;105279;1259;65811;-50
2023/07/19 02:38:53;;;;;;;0.70;0.60;;;;;;;13.37;100.00;99699.16;105261;1262;72482;-49
2023/07/19 02:41:20;;;;;;;2.30;0.50;;;;;;;13.35;100.00;99701.44;105174;1261;60550;-49
2023/07/19 02:43:48;;;;;;;2.50;0.60;;;;;;;13.37;100.00;99698.95;105496;1259;60536;-48
2023/07/19 02:46:16;;;;;;;1.20;0.50;;;;;;;13.43;100.00;99698.25;105269;1257;73841;-50
2023/07/19 02:48:43;;;;;;;2.90;0.50;;;;;;;13.48;100.00;99697.75;105281;1253;65800;-50
2023/07/19 02:51:11;;;;;;;0.60;0.40;;;;;;;13.56;100.00;99699.77;105150;1262;72503;-49
2023/07/19 02:53:38;;;;;;;2.90;0.40;;;;;;;13.64;100.00;99694.05;105412;1256;60781;-49
2023/07/19 02:56:06;;;;;;;1.90;0.60;;;;;;;13.71;100.00;99695.99;105177;1259;60661;-50
2023/07/19 02:58:33;;;;;;;4.30;0.50;;;;;;;13.76;100.00;99689.54;105388;1255;73724;-50
2023/07/19 03:01:01;;;;;;;1.30;0.50;;;;;;;13.80;100.00;99688.34;105365;1260;67158;-50
2023/07/19 03:03:29;;;;;;;0.70;0.50;;;;;;;13.83;100.00;99686.89;105345;1258;73439;-50
2023/07/19 03:05:57;;;;;;;2.00;0.50;;;;;;;13.86;100.00;99689.61;108889;1254;61677;-48
2023/07/19 03:08:24;;;;;;;0.80;0.60;;;;;;;13.92;100.00;99685.46;109000;1254;58748;-49
2023/07/19 03:10:53;;;;;;;2.00;0.60;;;;;;;13.97;100.00;99683.48;108917;1257;72881;-47
2023/07/19 03:13:20;;;;;;;2.70;0.50;;;;;;;14.01;100.00;99686.14;108934;1254;66450;-49
2023/07/19 03:15:48;;;;;;;4.10;0.60;;;;;;;14.07;100.00;99688.06;108910;1255;71416;-49
2023/07/19 03:18:15;;;;;;;2.80;0.50;;;;;;;14.11;100.00;99687.98;109004;1254;60403;-48
2023/07/19 03:20:43;;;;;;;0.90;0.70;;;;;;;14.14;100.00;99692.48;108911;1254;60038;-48
2023/07/19 03:23:11;;;;;;;0.50;0.40;;;;;;;14.18;100.00;99695.86;108884;1257;73125;-47
2023/07/19 03:25:39;;;;;;;1.20;0.50;;;;;;;14.26;100.00;99697.55;108871;1256;66631;-51
2023/07/19 03:28:06;;;;;;;2.30;0.50;;;;;;;14.31;100.00;99698.61;108911;1254;72546;-48
2023/07/19 03:30:33;;;;;;;3.90;0.60;;;;;;;14.39;100.00;99694.72;108979;1254;62082;-48
2023/07/19 03:33:01;;;;;;;1.10;0.60;;;;;;;14.49;100.00;99696.08;109015;1255;58522;-49
2023/07/19 03:35:29;;;;;;;4.90;0.50;;;;;;;14.60;100.00;99697.14;109007;1254;73825;-47
2023/07/19 03:37:56;;;;;;;1.20;0.40;;;;;;;14.70;100.00;99691.75;108994;1256;67866;-49
2023/07/19 03:40:24;;;;;;;1.30;0.40;;;;;;;14.82;100.00;99687.56;108909;1255;74032;-49
2023/07/19 03:42:52;;;;;;;0.80;0.60;;;;;;;14.89;100.00;99684.52;108903;1256;61454;-49
2023/07/19 03:45:20;;;;;;;2.70;0.60;;;;;;;14.96;100.00;99684.09;108916;1258;59129;-49
2023/07/19 03:47:47;;;;;;;1.60;0.50;;;;;;;15.04;100.00;99684.42;108867;1254;74471;-48
2023/07/19 03:50:15;;;;;;;2.00;0.60;;;;;;;15.12;100.00;99686.38;108806;1256;66808;-49
2023/07/19 03:52:46;;;;;;;1.50;0.40;;;;;;;15.23;100.00;99684.95;108838;1255;71399;-48
2023/07/19 03:55:13;;;;;;;1.20;0.50;;;;;;;15.34;100.00;99681.44;105157;1256;61675;-48
2023/07/19 03:57:40;;;;;;;0.60;0.60;;;;;;;15.45;100.00;99679.91;104891;1260;60530;-49
2023/07/19 04:00:09;;;;;;;1.80;0.50;;;;;;;15.58;100.00;99684.16;105190;1254;73789;-48
2023/07/19 04:02:45;;;;;;;0.80;0.50;;;;;;;15.70;100.00;99686.92;105155;1259;67146;-50
2023/07/19 04:05:15;;;;;;;3.00;0.50;;;;;;;15.81;100.00;99684.70;104788;1256;72741;-51
2023/07/19 04:07:43;;;;;;;0.50;0.50;;;;;;;15.92;100.00;99682.45;105926;1262;64182;-53
2023/07/19 04:10:11;;;;;;;0.50;0.40;;;;;;;16.04;100.00;99680.55;105554;1260;60645;-46
2023/07/19 04:12:38;;;;;;;1.60;0.50;;;;;;;16.15;100.00;99681.70;105353;1259;73852;-47
2023/07/19 04:15:07;;;;;;;2.10;0.50;;;;;;;16.25;100.00;99676.59;106510;1256;67082;-48
2023/07/19 04:17:34;;;;;;;3.00;0.30;;;;;;;16.36;100.00;99679.23;105399;1259;73261;-50
2023/07/19 04:20:03;;;;;;;1.20;0.40;;;;;;;16.46;100.00;99677.38;105392;1259;61826;-50
2023/07/19 04:22:31;;;;;;;0.50;0.40;;;;;;;16.57;100.00;99679.84;105331;1259;60406;-49
2023/07/19 04:24:58;;;;;;;2.00;0.50;;;;;;;16.69;100.00;99680.83;105010;1259;73907;-49
2023/07/19 04:27:26;;;;;;;1.30;0.40;;;;;;;16.80;100.00;99679.64;105322;1256;67573;-49
2023/07/19 04:29:53;;;;;;;3.00;0.60;;;;;;;16.89;100.00;99678.55;105287;1259;72494;-48
2023/07/19 04:32:21;;;;;;;0.80;0.50;;;;;;;16.99;100.00;99675.98;105330;1256;60440;-49
2023/07/19 04:34:55;;;;;;;1.60;0.40;;;;;;;17.09;100.00;99675.43;105339;1259;60454;-49
2023/07/19 04:37:22;;;;;;;3.70;0.50;;;;;;;17.19;100.00;99674.69;105270;1260;73798;-48
2023/07/19 04:39:50;;;;;;;0.90;0.50;;;;;;;17.27;100.00;99674.92;105330;1259;66345;-50
2023/07/19 04:42:19;;;;;;;2.50;0.50;;;;;;;17.35;100.00;99677.73;106218;1258;71172;-48
2023/07/19 04:44:46;;;;;;;0.50;0.50;;;;;;;17.44;100.00;99676.02;105418;1255;61661;-48
2023/07/19 04:47:13;;;;;;;1.50;0.40;;;;;;;17.52;100.00;99679.55;105417;1257;60566;-46
2023/07/19 04:49:41;;;;;;;1.30;0.50;;;;;;;17.60;100.00;99679.11;105255;1257;72568;-48
2023/07/19 04:52:08;;;;;;;1.50;0.50;;;;;;;17.69;100.00;99677.84;105271;1257;66450;-48
2023/07/19 04:54:36;;;;;;;0.90;0.50;;;;;;;17.78;100.00;99674.39;105817;1259;73191;-48
2023/07/19 04:57:05;;;;;;;0.50;0.50;;;;;;;17.88;100.00;99667.48;105256;1259;60466;-48
2023/07/19 04:59:32;;;;;;;0.80;0.60;;;;;;;17.97;100.00;99660.93;105326;1257;60783;-48
2023/07/19 05:02:00;;;;;;;0.90;0.70;;;;;;;18.06;100.00;99663.04;105418;1259;73885;-48
2023/07/19 05:04:27;;;;;;;1.10;0.60;;;;;;;18.15;100.00;99661.05;105301;1260;67745;-48
2023/07/19 05:06:55;;;;;;;1.70;0.60;;;;;;;18.24;100.00;99661.41;105386;1259;71878;-49
2023/07/19 05:09:22;;;;;;;1.70;0.50;;;;;;;18.32;100.00;99662.21;105421;1260;61543;-48
2023/07/19 05:11:49;;;;;;;2.50;0.70;;;;;;;18.41;100.00;99666.58;105428;1260;60422;-50
2023/07/19 05:14:17;;;;;;;3.10;1.20;;;;;;;18.49;100.00;99663.22;105411;1259;73558;-48
2023/07/19 05:16:45;;;;;;;1.70;0.50;;;;;;;18.57;100.00;99662.91;105233;1257;66084;-51
2023/07/19 05:19:13;;;;;;;1.60;0.50;;;;;;;18.66;100.00;99666.34;105455;1262;71122;-48
2023/07/19 05:21:40;;;;;;;4.30;0.50;;;;;;;18.76;100.00;99666.81;105235;1257;61698;-47
2023/07/19 05:24:07;;;;;;;0.70;0.50;;;;;;;18.85;100.00;99666.33;105144;1254;60555;-50
2023/07/19 05:26:35;;;;;;;4.80;0.50;;;;;;;18.96;100.00;99664.91;105293;1259;72605;-49
2023/07/19 05:29:06;;;;;;;1.00;0.40;;;;;;;19.07;100.00;99665.97;105503;1260;64987;-48
2023/07/19 05:31:37;;;;;;;1.90;0.60;;;;;;;19.18;100.00;99672.32;105209;1259;72792;-48
2023/07/19 05:34:04;;;;;;;0.90;0.40;;;;;;;19.28;100.00;99667.61;106638;1254;61570;-51
2023/07/19 05:36:31;;;;;;;2.00;0.60;;;;;;;19.38;100.00;99661.66;105279;1259;60509;-48
2023/07/19 05:38:59;;;;;;;1.10;0.50;;;;;;;19.49;100.00;99664.19;105243;1254;72568;-48
2023/07/19 05:41:27;;;;;;;0.80;0.40;;;;;;;19.59;100.00;99659.46;105172;1260;67555;-50
2023/07/19 05:43:54;;;;;;;0.90;0.40;;;;;;;19.68;100.00;99654.17;105228;1258;72764;-49
2023/07/19 05:46:38;;;;;;;2.40;0.50;;;;;;;19.77;100.00;99655.04;105122;1260;60564;-48
2023/07/19 05:49:05;;;;;;;0.50;0.30;;;;;;;19.84;100.00;99650.02;105231;1257;60658;-50
2023/07/19 05:51:32;;;;;;;2.90;0.40;;;;;;;19.93;100.00;99651.25;105355;1259;73877;-49
2023/07/19 05:54:00;;;;;;;3.10;0.40;;;;;;;20.01;100.00;99651.00;105122;1260;66743;-52
2023/07/19 05:56:27;;;;;;;1.00;0.40;;;;;;;20.09;100.00;99649.81;104789;1259;73701;-49
2023/07/19 05:58:54;;;;;;;3.50;0.50;;;;;;;20.16;100.00;99648.80;104944;1257;60444;-49
2023/07/19 06:01:22;;;;;;;1.00;0.40;;;;;;;20.24;100.00;99647.52;105226;1257;60412;-52
2023/07/19 06:03:55;;;;;;;0.40;0.30;;;;;;;20.33;100.00;99644.36;106013;1257;72563;-52
2023/07/19 06:06:25;;;;;;;1.40;0.80;;;;;;;20.41;100.00;99636.91;105447;1254;65852;-49
2023/07/19 06:08:52;;;;;;;0.60;0.40;;;;;;;20.49;100.00;99637.67;104928;1259;72664;-49
2023/07/19 06:11:19;;;;;;;0.80;0.50;;;;;;;20.55;100.00;99633.04;105254;1257;60562;-50
2023/07/19 06:13:48;;;;;;;2.00;0.40;;;;;;;20.63;100.00;99633.60;105260;1255;60488;-50
2023/07/19 06:16:15;;;;;;;0.40;0.40;;;;;;;20.70;100.00;99626.59;105282;1257;73938;-50
2023/07/19 06:18:43;;;;;;;3.10;0.40;;;;;;;20.76;100.00;99625.86;105261;1254;66754;-48
2023/07/19 06:21:10;;;;;;;0.60;0.40;;;;;;;20.83;100.00;99618.15;105270;1257;72142;-49
2023/07/19 06:23:39;;;;;;;1.60;0.30;;;;;;;20.91;100.00;99610.75;106401;1257;60444;-50
2023/07/19 06:26:06;;;;;;;1.50;0.30;;;;;;;20.98;100.00;99602.21;105163;1257;60586;-52
2023/07/19 06:28:35;;;;;;;2.80;0.30;;;;;;;21.04;100.00;99600.73;105274;1260;73152;-50
2023/07/19 06:31:02;;;;;;;1.80;0.30;;;;;;;21.11;100.00;99596.31;105158;1260;67996;-50
2023/07/19 06:33:30;;;;;;;1.80;0.40;;;;;;;21.19;100.00;99596.52;104981;1259;71719;-51
2023/07/19 06:35:57;;;;;;;0.90;0.30;;;;;;;21.26;100.00;99589.20;105203;1257;60576;-52
2023/07/19 06:38:25;;;;;;;0.80;0.50;;;;;;;21.32;100.00;99582.06;105249;1254;60485;-52
2023/07/19 06:40:53;;;;;;;0.50;0.40;;;;;;;21.39;100.00;99581.04;108949;1255;73587;-49
2023/07/19 06:43:20;;;;;;;1.30;0.30;;;;;;;21.46;100.00;99574.89;109034;1256;67880;-49
2023/07/19 06:45:49;;;;;;;0.30;0.30;;;;;;;21.51;100.00;99570.35;108969;1256;72628;-50
2023/07/19 06:48:16;;;;;;;0.50;0.30;;;;;;;21.55;100.00;99568.86;108945;1257;59201;-50
2023/07/19 06:50:43;;;;;;;2.20;0.40;;;;;;;21.59;100.00;99571.50;108677;1254;266236;-51
2023/07/19 06:54:36;;;;;;;1.10;0.40;;;;;;;21.65;100.00;99574.55;101884;1291;600897;-50
2023/07/19 06:57:04;;;;;;;0.50;0.30;;;;;;;21.70;100.00;99574.56;104201;1266;59386;-51
2023/07/19 06:59:31;;;;;;;2.10;0.30;;;;;;;21.77;100.00;99565.97;104213;1266;60296;-50
2023/07/19 07:01:59;;;;;;;3.80;0.30;;;;;;;21.84;100.00;99561.48;104214;1271;72787;-48
2023/07/19 07:04:26;;;;;;;1.10;0.30;;;;;;;21.92;100.00;99556.77;104067;1271;67973;-50
2023/07/19 07:06:54;;;;;;;0.20;0.20;;;;;;;21.97;100.00;99547.80;104122;1266;73568;-50
2023/07/19 07:09:21;;;;;;;0.70;0.30;;;;;;;22.02;100.00;99547.33;105230;1266;207147;-49
2023/07/19 07:11:48;;;;;;;4.70;0.30;;;;;;;22.08;100.00;99543.79;104288;1263;60040;-50
2023/07/19 07:14:16;;;;;;;0.80;0.30;;;;;;;22.15;100.00;99540.37;104611;1264;72188;-49
2023/07/19 07:16:43;;;;;;;2.50;0.50;;;;;;;22.22;100.00;99531.59;104181;1264;67160;-49
2023/07/19 07:19:11;;;;;;;0.40;0.20;;;;;;;22.29;100.00;99538.04;104291;1268;71989;-51
2023/07/19 07:21:39;;;;;;;1.70;0.20;;;;;;;22.34;100.00;99540.85;104471;1270;59802;-50
2023/07/19 07:24:07;;;;;;;0.40;0.20;;;;;;;22.37;100.00;99531.95;105087;1263;60053;-53
2023/07/19 07:26:34;;;;;;;0.40;0.20;;;;;;;22.39;100.00;99528.58;104656;1263;73646;-52
2023/07/19 07:29:03;;;;;;;2.90;0.20;;;;;;;22.42;100.00;99527.98;104657;1266;65650;-50
2023/07/19 07:31:31;;;;;;;0.60;0.20;;;;;;;22.46;100.00;99527.95;104883;1263;71399;-49
2023/07/19 07:33:59;;;;;;;0.50;0.10;;;;;;;22.50;100.00;99520.70;105342;1260;60137;-51
2023/07/19 07:36:26;;;;;;;1.30;0.30;;;;;;;22.57;100.00;99519.77;104886;1260;60150;-49
2023/07/19 07:38:54;;;;;;;0.90;0.20;;;;;;;22.63;100.00;99524.12;104779;1267;73851;-51
2023/07/19 07:41:21;;;;;;;3.40;0.20;;;;;;;22.67;100.00;99523.77;104853;1262;65957;-52
2023/07/19 07:43:49;;;;;;;0.50;0.20;;;;;;;22.72;100.00;99522.38;104658;1262;71698;-50
2023/07/19 07:46:16;;;;;;;0.20;0.20;;;;;;;22.76;100.00;99525.04;104540;1265;60045;-49
2023/07/19 07:48:44;;;;;;;0.20;0.20;;;;;;;22.81;100.00;99532.73;104991;1260;59736;-50
2023/07/19 07:51:11;;;;;;;1.80;0.20;;;;;;;22.88;100.00;99534.03;104949;1262;73216;-50
2023/07/19 07:53:39;;;;;;;0.50;0.20;;;;;;;22.96;100.00;99527.73;104791;1260;67164;-50
2023/07/19 07:56:06;;;;;;;1.60;0.20;;;;;;;23.07;100.00;99525.17;105330;1263;72362;-51
2023/07/19 07:58:33;;;;;;;2.90;0.30;;;;;;;23.16;100.00;99518.50;104973;1263;59762;-52
2023/07/19 08:01:01;;;;;;;0.40;0.20;;;;;;;23.26;100.00;99519.66;104899;1265;59696;-51
2023/07/19 08:03:28;;;;;;;1.30;0.20;;;;;;;23.34;100.00;99518.94;104878;1266;73055;-50
2023/07/19 08:05:56;;;;;;;0.40;0.20;;;;;;;23.41;100.00;99515.83;104839;1260;67596;-51
2023/07/19 08:08:23;;;;;;;1.00;0.30;;;;;;;23.49;100.00;99509.72;105204;1265;74599;-50
2023/07/19 08:10:52;;;;;;;0.20;0.20;;;;;;;23.57;100.00;99507.07;104946;1264;60503;-51
2023/07/19 08:13:19;;;;;;;0.40;0.20;;;;;;;23.64;100.00;99507.94;104923;1268;59650;-50
2023/07/19 08:15:47;;;;;;;0.60;0.20;;;;;;;23.70;100.00;99505.98;104918;1268;73094;-52
2023/07/19 08:18:15;;;;;;;0.40;0.20;;;;;;;23.74;100.00;99504.16;104966;1267;67076;-53
2023/07/19 08:20:42;;;;;;;0.30;0.20;;;;;;;23.73;100.00;99508.64;104921;1260;72721;-51
2023/07/19 08:23:10;;;;;;;0.40;0.20;;;;;;;23.69;100.00;99518.40;104859;1262;59654;-49
2023/07/19 08:25:38;;;;;;;0.30;0.20;;;;;;;23.60;100.00;99520.11;104929;1266;59676;-51
2023/07/19 08:28:05;;;;;;;0.30;0.20;;;;;;;23.48;100.00;99521.95;104791;1268;72984;-48
2023/07/19 08:30:32;;;;;;;0.20;0.20;;;;;;;23.35;100.00;99524.88;104969;1266;67672;-51
2023/07/19 08:33:05;;;;;;;0.10;0.10;;;;;;;23.26;100.00;99522.79;104880;1265;72666;-50
2023/07/19 08:35:33;;;;;;;0.50;0.20;;;;;;;23.23;100.00;99522.66;105768;1263;59517;-50
2023/07/19 08:38:00;;;;;;;0.50;0.20;;;;;;;23.27;100.00;99517.48;104711;1264;59748;-49
2023/07/19 08:40:30;;;;;;;0.30;0.20;;;;;;;23.34;100.00;99516.97;104645;1261;72225;-50
2023/07/19 08:42:57;;;;;;;0.10;0.10;;;;;;;23.41;100.00;99512.55;104872;1263;66055;-51
2023/07/19 08:45:25;;;;;;;0.30;0.20;;;;;;;23.46;100.00;99509.48;104774;1261;72658;-46
2023/07/19 08:47:52;;;;;;;0.10;0.10;;;;;;;23.51;100.00;99508.29;105275;1267;59862;-50
2023/07/19 08:50:20;;;;;;;0.40;0.10;;;;;;;23.57;100.00;99508.20;104693;1261;60001;-50
2023/07/19 08:52:47;;;;;;;0.40;0.20;;;;;;;23.65;100.00;99508.56;104830;1260;71858;-50
2023/07/19 08:55:16;;;;;;;0.60;0.20;;;;;;;23.72;100.00;99503.08;104757;1268;66790;-49
2023/07/19 08:57:44;;;;;;;0.80;0.20;;;;;;;23.74;100.00;99496.00;105576;1265;71622;-51
2023/07/19 09:00:15;;;;;;;1.90;0.20;;;;;;;23.77;100.00;99499.08;104850;1260;60044;-51
2023/07/19 09:02:43;;;;;;;0.70;0.30;;;;;;;23.76;100.00;99496.93;104679;1259;59964;-49
2023/07/19 09:05:13;;;;;;;0.50;0.20;;;;;;;23.74;100.00;99498.63;104642;1260;72805;-50
2023/07/19 09:07:41;;;;;;;0.50;0.30;;;;;;;23.73;100.00;99501.25;104884;1266;67382;-50
2023/07/19 09:10:09;;;;;;;0.40;0.20;;;;;;;23.71;100.00;99500.02;104779;1262;73254;-49
2023/07/19 09:12:41;;;;;;;0.90;0.20;;;;;;;23.67;100.00;99496.44;105850;1265;60109;-49
2023/07/19 09:15:10;;;;;;;3.70;0.20;;;;;;;23.67;100.00;99492.94;104800;1263;60160;-49
2023/07/19 09:17:45;;;;;;;0.50;0.20;;;;;;;23.71;100.00;99491.42;104861;1268;72414;-52
2023/07/19 09:20:13;;;;;;;0.30;0.20;;;;;;;23.79;100.00;99488.23;104818;1266;66687;-53
2023/07/19 09:22:41;;;;;;;3.20;0.30;;;;;;;23.88;100.00;99482.88;104736;1263;74876;-50
2023/07/19 09:25:09;;;;;;;1.70;0.20;;;;;;;23.95;100.00;99478.06;108464;1263;60061;-51
2023/07/19 09:27:37;;;;;;;0.30;0.20;;;;;;;24.00;100.00;99474.95;108667;1259;60064;-52
2023/07/19 09:30:09;;;;;;;0.50;0.20;;;;;;;24.07;100.00;99465.35;108577;1260;72457;-49
2023/07/19 09:32:37;;;;;;;0.30;0.20;;;;;;;24.16;100.00;99455.59;108584;1261;67728;-51
2023/07/19 09:35:05;;;;;;;0.30;0.20;;;;;;;24.20;100.00;99455.56;108739;1256;73338;-52
2023/07/19 09:37:33;;;;;;;0.40;0.20;;;;;;;24.16;100.00;99455.97;108846;1255;58772;-52
2023/07/19 09:40:04;;;;;;;1.70;0.20;;;;;;;24.08;100.00;99455.73;108759;1255;59535;-49
2023/07/19 09:42:37;;;;;;;0.60;0.20;;;;;;;24.05;100.00;99453.27;108839;1256;73461;-52
2023/07/19 09:45:06;;;;;;;0.30;0.20;;;;;;;24.12;100.00;99447.27;108861;1257;69541;-50
2023/07/19 09:47:34;;;;;;;0.80;0.20;;;;;;;24.20;100.00;99442.52;108620;1257;72671;-49
2023/07/19 09:50:04;;;;;;;0.70;0.40;;;;;;;24.27;100.00;99440.04;108801;1260;60048;-49
2023/07/19 09:52:31;;;;;;;0.30;0.20;;;;;;;24.35;100.00;99435.14;108745;1256;60004;-49
2023/07/19 09:54:58;;;;;;;1.90;0.20;;;;;;;24.44;100.00;99439.29;108760;1256;73061;-50
2023/07/19 09:57:26;;;;;;;0.20;0.20;;;;;;;24.53;100.00;99436.06;108864;1256;67721;-48
2023/07/19 09:59:53;;;;;;;0.30;0.20;;;;;;;24.63;100.00;99430.60;108712;1259;72640;-52
2023/07/19 10:02:21;;;;;;;0.20;0.20;;;;;;;24.70;100.00;99430.84;108624;1256;60231;-51
2023/07/19 10:04:50;;;;;;;1.00;0.20;;;;;;;24.74;100.00;99430.65;108692;1256;60370;-50
2023/07/19 10:07:19;;;;;;;1.40;0.20;;;;;;;24.74;100.00;99427.10;108873;1256;72924;-48
2023/07/19 10:09:48;;;;;;;1.70;0.20;;;;;;;24.78;100.00;99421.52;108793;1256;66351;-50
2023/07/19 10:12:15;;;;;;;0.20;0.20;;;;;;;24.86;100.00;99422.48;108779;1257;71848;-49
2023/07/19 10:14:55;;;;;;;0.20;0.10;;;;;;;24.95;100.00;99422.54;106064;1261;59991;-51
2023/07/19 10:17:22;;;;;;;0.30;0.20;;;;;;;25.01;100.00;99420.02;105099;1262;59740;-53
2023/07/19 10:20:06;;;;;;;0.20;0.10;;;;;;;25.05;100.00;99413.34;105593;1262;73115;-50
2023/07/19 10:22:58;;;;;;;0.20;0.10;;;;;;;25.08;100.00;99413.41;105027;1261;66888;-48
2023/07/19 10:25:29;;;;;;;0.50;0.10;;;;;;;25.05;100.00;99419.23;106108;1261;71245;-51
2023/07/19 10:27:58;;;;;;;1.20;0.20;;;;;;;24.96;100.00;99416.45;104655;1262;59778;-52
2023/07/19 10:30:50;;;;;;;0.50;0.10;;;;;;;24.85;100.00;99413.77;105010;1257;60003;-50
2023/07/19 10:33:28;;;;;;;0.20;0.10;;;;;;;24.72;100.00;99417.29;104755;1261;73669;-51
2023/07/19 10:36:03;;;;;;;0.20;0.10;;;;;;;24.65;100.00;99420.39;104420;1262;65618;-50
2023/07/19 10:38:30;;;;;;;0.20;0.20;;;;;;;24.62;100.00;99413.84;107641;1262;71068;-52
2023/07/19 10:41:05;;;;;;;0.50;0.20;;;;;;;24.60;100.00;99410.95;104393;1265;60043;-51
2023/07/19 10:43:33;;;;;;;0.10;0.10;;;;;;;24.62;100.00;99409.38;105037;1259;60051;-50
2023/07/19 10:46:18;;;;;;;0.80;0.20;;;;;;;24.72;100.00;99407.55;104842;1257;73006;-54
2023/07/19 10:48:48;;;;;;;2.10;0.30;;;;;;;24.83;100.00;99406.63;104716;1256;66761;-51
2023/07/19 10:51:16;;;;;;;0.30;0.20;;;;;;;24.93;100.00;99407.25;104767;1263;74132;-52
2023/07/19 10:53:47;;;;;;;0.30;0.10;;;;;;;24.98;100.00;99403.16;104897;1263;60512;-51
2023/07/19 10:56:15;;;;;;;0.70;0.20;;;;;;;24.98;100.00;99408.30;105158;1262;59645;-51
2023/07/19 10:58:43;;;;;;;1.40;0.20;;;;;;;24.93;100.00;99406.80;106981;1259;72982;-50
2023/07/19 11:01:11;;;;;;;0.40;0.20;;;;;;;24.86;100.00;99409.02;105175;1262;66947;-51
2023/07/19 11:03:42;;;;;;;1.60;0.20;;;;;;;24.79;100.00;99405.45;105683;1260;72833;-49
2023/07/19 11:06:10;;;;;;;6.50;0.20;;;;;;;24.77;100.00;99408.64;105024;1263;60555;-51
2023/07/19 11:08:37;;;;;;;1.70;0.30;;;;;;;24.77;100.00;99403.48;105138;1256;60397;-50
2023/07/19 11:11:06;;;;;;;0.80;0.20;;;;;;;24.74;100.00;99406.01;105072;1258;73876;-52
2023/07/19 11:13:34;;;;;;;0.40;0.20;;;;;;;24.70;100.00;99407.55;105001;1262;65646;-53
2023/07/19 11:16:02;;;;;;;0.90;0.20;;;;;;;24.71;100.00;99407.35;105005;1262;72650;-50
2023/07/19 11:18:39;;;;;;;0.30;0.20;;;;;;;24.74;100.00;99406.08;105118;1262;61002;-54
2023/07/19 11:21:06;;;;;;;0.60;0.20;;;;;;;24.78;100.00;99400.42;105253;1261;60541;-50
2023/07/19 11:23:41;;;;;;;0.20;0.20;;;;;;;24.80;100.00;99398.13;105189;1263;72607;-52